Time;durP1;ratioP1;P1;durP2;ratioP2;P2;SDS_P1;SDS_P2;PMS_P1;PMS_P2;Temp;Humidity;BMP_temperature;BMP_pressure;BME280_temperature;BME280_humidity;BME280_pressure;Samples;Min_cycle;Max_cycle;Signal;HPM_P1;HPM_P2
2021/12/25 00:02:25;;;;;;;;;;;;;;;2.87;19.66;98116.97;4827682;29;19947;-66
2021/12/25 00:05:40;;;;;;;;;;;;;;;2.62;22.21;98111.41;4867286;29;20419;-66
2021/12/25 00:08:26;;;;;;;;;;;;;;;2.46;21.24;98124.34;4872352;29;19939;-66
2021/12/25 00:10:52;;;;;;;;;;;;;;;2.56;22.13;98108.97;4882181;29;20289;-66
2021/12/25 00:13:19;;;;;;;;;;;;;;;2.99;19.66;98116.78;4893979;29;20065;-66
2021/12/25 00:15:45;;;;;;;;;;;;;;;2.75;21.29;98107.81;4912797;29;20037;-66
2021/12/25 00:18:11;;;;;;;;;;;;;;;2.48;22.37;98103.97;4927164;29;19970;-66
2021/12/25 00:20:36;;;;;;;;;;;;;;;2.78;20.05;98112.84;4927170;29;19919;-66
2021/12/25 00:23:05;;;;;;;;;;;;;;;2.53;21.37;98119.16;4930294;29;19930;-66
2021/12/25 00:25:34;;;;;;;;;;;;;;;2.50;20.68;98123.44;4929656;28;19919;-66
2021/12/25 00:28:15;;;;;;;;;;;;;;;2.56;20.49;98126.78;4985119;28;19922;-66
2021/12/25 00:30:47;;;;;;;;;;;;;;;2.57;22.85;98133.53;5031996;28;20522;-66
2021/12/25 00:33:34;;;;;;;;;;;;;;;2.74;20.18;98116.34;5047166;28;20467;-66
2021/12/25 00:36:00;;;;;;;;;;;;;;;2.55;21.35;98122.53;5047451;28;19966;-66
2021/12/25 00:38:26;;;;;;;;;;;;;;;2.46;23.84;98109.09;5049920;28;19916;-66
2021/12/25 00:40:51;;;;;;;;;;;;;;;3.00;21.29;98112.53;5046725;28;20238;-63
2021/12/25 00:43:16;;;;;;;;;;;;;;;3.01;23.47;98104.03;5048155;28;19924;-63
2021/12/25 00:45:42;;;;;;;;;;;;;;;2.25;27.48;98111.91;5048218;28;19917;-63
2021/12/25 00:48:07;;;;;;;;;;;;;;;2.32;26.74;98108.44;5051668;28;19946;-63
2021/12/25 00:50:33;;;;;;;;;;;;;;;2.46;24.66;98106.56;5051842;28;20018;-63
2021/12/25 00:52:58;;;;;;;;;;;;;;;2.68;22.73;98104.53;5050659;28;20313;-65
2021/12/25 00:55:24;;;;;;;;;;;;;;;2.65;22.42;98106.31;5050837;28;20238;-66
2021/12/25 00:57:49;;;;;;;;;;;;;;;2.49;25.01;98111.59;5050239;28;19916;-65
2021/12/25 01:00:15;;;;;;;;;;;;;;;2.57;25.27;98108.09;5049832;28;19916;-66
2021/12/25 01:02:41;;;;;;;;;;;;;;;2.51;23.62;98107.34;5048941;28;20297;-65
2021/12/25 01:05:07;;;;;;;;;;;;;;;2.06;27.16;98111.31;5049195;28;19991;-66
2021/12/25 01:07:33;;;;;;;;;;;;;;;2.42;24.62;98110.00;5047692;28;19920;-65
2021/12/25 01:10:00;;;;;;;;;;;;;;;2.79;25.89;98113.72;5048969;28;20298;-66
2021/12/25 01:12:29;;;;;;;;;;;;;;;2.62;26.71;98108.88;5048253;28;20021;-66
2021/12/25 01:14:58;;;;;;;;;;;;;;;2.93;24.87;98112.63;5048926;28;20371;-66
2021/12/25 01:18:24;;;;;;;;;;;;;;;2.42;28.49;98115.09;5048462;28;19917;-65
2021/12/25 01:49:32;;;;;;;;;;;;;;;1.86;18.99;98140.31;4944549;28;19928;-66
2021/12/25 01:51:57;;;;;;;;;;;;;;;2.13;17.79;98143.41;4946027;28;19927;-66
2021/12/25 01:54:22;;;;;;;;;;;;;;;1.58;21.79;98139.75;4944453;28;20045;-66
2021/12/25 01:56:48;;;;;;;;;;;;;;;1.87;19.43;98141.13;4943899;28;19919;-66
2021/12/25 01:59:14;;;;;;;;;;;;;;;2.32;17.57;98149.06;5009793;28;20428;-66
2021/12/25 02:01:40;;;;;;;;;;;;;;;2.09;21.02;98136.66;5048046;28;20042;-66
2021/12/25 02:04:06;;;;;;;;;;;;;;;1.97;20.21;98127.50;5051016;28;19916;-63
2021/12/25 02:06:31;;;;;;;;;;;;;;;2.22;18.00;98132.28;5050592;28;19923;-66
2021/12/25 02:08:56;;;;;;;;;;;;;;;1.99;20.37;98130.03;5045889;28;19955;-66
2021/12/25 02:11:22;;;;;;;;;;;;;;;1.56;22.04;98130.47;5043455;28;19935;-66
2021/12/25 02:13:47;;;;;;;;;;;;;;;1.53;19.80;98130.50;5026213;28;19935;-66
2021/12/25 02:16:14;;;;;;;;;;;;;;;1.53;19.89;98126.28;5017080;28;20073;-66
2021/12/25 02:21:19;;;;;;;;;;;;;;;1.93;18.00;98147.88;5044084;28;19919;-66
2021/12/25 02:23:44;;;;;;;;;;;;;;;1.85;17.72;98145.41;5042507;28;19920;-66
2021/12/25 02:26:10;;;;;;;;;;;;;;;1.76;18.51;98142.97;5043021;28;19928;-66
2021/12/25 02:28:35;;;;;;;;;;;;;;;1.90;16.96;98141.13;5043550;28;19928;-66
2021/12/25 02:31:04;;;;;;;;;;;;;;;1.92;15.98;98141.94;5024761;28;19923;-66
2021/12/25 02:33:30;;;;;;;;;;;;;;;1.76;16.22;98142.97;5042860;28;20582;-66
2021/12/25 02:35:55;;;;;;;;;;;;;;;1.48;17.12;98137.31;5042379;28;19917;-66
2021/12/25 02:38:21;;;;;;;;;;;;;;;1.40;17.67;98145.84;5043178;28;19924;-66
2021/12/25 02:40:46;;;;;;;;;;;;;;;1.29;17.16;98141.72;5043055;28;20067;-66
2021/12/25 02:43:11;;;;;;;;;;;;;;;1.73;15.70;98143.00;5043328;28;19929;-66
2021/12/25 02:45:37;;;;;;;;;;;;;;;1.49;18.30;98136.47;5043399;28;20959;-66
2021/12/25 02:48:08;;;;;;;;;;;;;;;1.58;17.90;98142.28;5042357;28;20472;-66
2021/12/25 02:50:33;;;;;;;;;;;;;;;1.15;18.24;98130.00;5046408;28;19936;-66
2021/12/25 02:53:00;;;;;;;;;;;;;;;1.83;13.77;98140.34;5050302;28;19921;-66
2021/12/25 02:55:25;;;;;;;;;;;;;;;1.61;16.71;98128.72;5031858;28;19919;-66
2021/12/25 02:57:52;;;;;;;;;;;;;;;1.43;18.42;98132.28;5030427;28;19927;-66
2021/12/25 03:00:21;;;;;;;;;;;;;;;1.49;17.29;98117.00;5046529;28;19963;-63
2021/12/25 03:02:47;;;;;;;;;;;;;;;1.77;15.98;98124.34;5046692;28;20687;-63
2021/12/25 03:05:13;;;;;;;;;;;;;;;1.35;18.21;98121.38;5046527;28;19913;-63
2021/12/25 03:07:38;;;;;;;;;;;;;;;1.37;17.25;98128.13;5046173;28;19967;-63
2021/12/25 03:10:05;;;;;;;;;;;;;;;1.51;16.73;98128.00;5021270;28;19913;-62
2021/12/25 03:12:37;;;;;;;;;;;;;;;1.38;17.44;98134.03;5043988;28;19924;-63
2021/12/25 03:15:13;;;;;;;;;;;;;;;1.27;16.88;98140.91;5045364;28;20011;-62
2021/12/25 03:17:38;;;;;;;;;;;;;;;1.55;15.10;98138.94;5045752;28;20386;-62
2021/12/25 03:20:04;;;;;;;;;;;;;;;1.28;16.06;98129.88;5047029;28;20073;-63
2021/12/25 03:22:30;;;;;;;;;;;;;;;1.33;16.66;98143.38;5046416;28;19929;-63
2021/12/25 03:24:55;;;;;;;;;;;;;;;1.37;15.25;98139.94;5046570;28;20027;-66
2021/12/25 03:27:21;;;;;;;;;;;;;;;1.23;14.00;98148.53;5050026;28;19940;-65
2021/12/25 03:29:46;;;;;;;;;;;;;;;1.37;13.28;98155.16;5052185;28;19970;-65
2021/12/25 03:32:12;;;;;;;;;;;;;;;1.41;12.72;98149.22;5032517;28;20281;-65
2021/12/25 03:34:37;;;;;;;;;;;;;;;1.23;12.86;98148.53;5032626;28;20290;-65
2021/12/25 03:37:03;;;;;;;;;;;;;;;1.12;13.16;98139.31;5050162;28;20020;-65
2021/12/25 03:39:28;;;;;;;;;;;;;;;0.98;12.51;98142.81;5049848;28;19916;-65
2021/12/25 03:41:56;;;;;;;;;;;;;;;1.10;10.64;98146.13;5050321;28;19923;-65
2021/12/25 03:44:22;;;;;;;;;;;;;;;1.29;8.35;98147.63;5049727;28;20424;-66
2021/12/25 03:46:47;;;;;;;;;;;;;;;1.32;9.00;98151.84;5050169;28;19948;-66
2021/12/25 03:49:25;;;;;;;;;;;;;;;1.10;11.25;98152.03;5050097;28;19912;-65
2021/12/25 04:00:06;;;;;;;;;;;;;;;1.00;8.39;98158.00;5050188;28;19943;-65
2021/12/25 04:02:36;;;;;;;;;;;;;;;0.73;8.15;98157.34;5031756;28;19928;-65
2021/12/25 04:05:05;;;;;;;;;;;;;;;0.57;10.02;98160.81;5044607;28;20070;-65
2021/12/25 04:10:00;;;;;;;;;;;;;;;0.99;5.95;98156.34;5049731;28;20015;-65
2021/12/25 04:12:26;;;;;;;;;;;;;;;0.42;10.72;98151.63;5049611;28;20305;-65
2021/12/25 04:14:51;;;;;;;;;;;;;;;0.80;7.19;98155.63;5048899;28;20015;-65
2021/12/25 04:17:17;;;;;;;;;;;;;;;1.08;5.14;98163.03;5046752;28;19966;-65
2021/12/25 04:19:42;;;;;;;;;;;;;;;0.81;6.84;98167.44;5048759;28;19948;-62
2021/12/25 04:22:17;;;;;;;;;;;;;;;0.83;6.64;98163.19;5054167;28;19974;-61
2021/12/25 04:24:44;;;;;;;;;;;;;;;0.88;6.94;98165.72;5054225;28;19962;-62
2021/12/25 04:27:13;;;;;;;;;;;;;;;0.41;7.89;98160.91;5054305;28;19939;-62
2021/12/25 04:29:45;;;;;;;;;;;;;;;0.69;5.32;98165.00;5052403;28;19916;-63
2021/12/25 05:04:23;;;;;;;;;;;;;;;0.57;8.54;98181.06;5052247;28;19923;-62
2021/12/25 05:06:49;;;;;;;;;;;;;;;0.77;7.46;98174.19;5051412;28;20021;-61
2021/12/25 05:09:14;;;;;;;;;;;;;;;1.01;6.53;98188.44;5051667;28;20444;-62
2021/12/25 06:59:11;;;;;;;;;;;;;;;0.29;32.56;98231.03;5018122;28;19980;-62
2021/12/25 07:01:37;;;;;;;;;;;;;;;0.22;33.04;98230.19;5046626;28;19928;-61
2021/12/25 07:22:44;;;;;;;;;;;;;;;0.13;36.96;98242.88;5043901;28;19928;-62
2021/12/25 07:25:09;;;;;;;;;;;;;;;-0.04;38.24;98248.00;5043078;28;20008;-61
2021/12/25 07:27:35;;;;;;;;;;;;;;;0.50;35.58;98256.28;5042764;28;20015;-61
2021/12/25 08:23:11;;;;;;;;;;;;;;;0.27;57.13;98298.53;5035829;28;19931;-65
2021/12/25 08:34:45;;;;;;;;;;;;;;;-0.16;74.41;98299.47;5039935;28;19923;-65
2021/12/25 08:37:11;;;;;;;;;;;;;;;-0.54;79.54;98302.81;5045183;28;19917;-61
2021/12/25 08:42:47;;;;;;;;;;;;;;;-0.09;81.77;98295.22;5046366;28;20604;-62
2021/12/25 08:51:18;;;;;;;;;;;;;;;-0.12;89.89;98291.00;5047298;28;20008;-61
2021/12/25 08:53:44;;;;;;;;;;;;;;;0.09;89.87;98301.94;5047552;28;20007;-61
2021/12/25 09:26:55;;;;;;;;;;;;;;;0.02;100.00;98334.03;5004725;28;20434;-65
2021/12/25 09:29:20;;;;;;;;;;;;;;;-0.19;100.00;98345.00;5042337;28;19931;-65
2021/12/25 09:50:22;;;;;;;;;;;;;;;-0.15;100.00;98346.69;5039135;28;20067;-65
2021/12/25 09:52:48;;;;;;;;;;;;;;;-0.10;100.00;98346.69;5039081;28;20007;-65
2021/12/25 10:32:02;;;;;;;;;;;;;;;-0.18;100.00;98381.25;5037987;28;19983;-65
2021/12/25 12:01:43;;;;;;;;;;;;;;;-0.40;100.00;98319.69;5028460;28;20373;-63
2021/12/25 13:31:24;;;;;;;;;;;;;;;-0.63;100.00;98315.44;5049157;28;20436;-64
2021/12/25 14:44:57;;;;;;;;;;;;;;;-0.95;100.00;98333.91;5025040;28;19970;-63
2021/12/25 14:53:28;;;;;;;;;;;;;;;-0.98;100.00;98333.91;5048400;28;19924;-63
2021/12/25 19:59:29;;;;;;;;;;;;;;;-3.66;100.00;98380.25;5047478;28;19931;-62
2021/12/25 20:14:16;;;;;;;;;;;;;;;-3.63;100.00;98360.16;5046886;28;19923;-60
2021/12/25 20:16:41;;;;;;;;;;;;;;;-3.29;100.00;98361.44;5047026;28;19959;-62
2021/12/25 21:11:57;;;;;;;;;;;;;;;-3.42;100.00;98357.94;5020631;28;19936;-61
2021/12/25 21:14:27;;;;;;;;;;;;;;;-3.35;100.00;98351.31;5049955;28;19932;-61
2021/12/25 21:29:41;;;;;;;;;;;;;;;-2.97;100.00;98340.84;5039502;28;20030;-62
2021/12/25 22:02:54;;;;;;;;;;;;;;;-3.48;100.00;98337.72;5041866;28;19983;-61
2021/12/25 22:05:21;;;;;;;;;;;;;;;-3.63;100.00;98333.31;5040688;28;19970;-61
2021/12/25 22:43:40;;;;;;;;;;;;;;;-3.13;100.00;98324.72;5021240;28;19928;-61
2021/12/25 23:21:14;;;;;;;;;;;;;;;-1.98;100.00;98299.72;5047312;28;19970;-58
